Terminal Aerodrome Forecast
Issued by NWS

Home | Current Version | Previous Version | Text Only | Print | Product List | Glossary Off
Versions: 1 2 3 4 5 6 7 8 9 10 11 12 13 14

000
FTUS43 KGLD 271140
TAFMCK
TAF
KMCK 271140Z 2712/2812 VRB06KT P6SM BKN150
     FM272000 13007KT P6SM VCTS SCT070CB
     FM272300 11009KT 6SM -TSRA BKN050CB
     FM280500 VRB06KT P6SM SCT120=

USA.gov is the U.S. government's official web portal to all federal, state and local government web resources and services.